This is the latest recevied weather packets stored in our database for station/object KJ5FA-9. If no packets are shown the sender has not sent any weather packets the latest 10 day(s).
| Time | Temp. | Humidity | Pressure | Rain* | Wind** | Luminosity | Snow |
|---|---|---|---|---|---|---|---|
| 1788486575 | 31.11° C | 57% | 1013.9 hPa | 0 mm | - | - | - |
| 1788485074 | 31.67° C | 56% | 1013.6 hPa | 0 mm | - | - | - |
| 1788483575 | 32.22° C | 54% | 1013.5 hPa | 0 mm | - | - | - |
| 1788482073 | 32.78° C | 52% | 1013.4 hPa | 0 mm | - | - | - |
| 1788480574 | 33.89° C | 51% | 1013.3 hPa | 0 mm | - | - | - |
| 1788479074 | 34.44° C | 48% | 1013.3 hPa | 0 mm | - | - | - |
| 1788477574 | 35° C | 46% | 1013.1 hPa | 0 mm | - | - | - |
| 1788476074 | 35° C | 46% | 1012.9 hPa | 0 mm | - | - | - |
| 1788474574 | 35.56° C | 45% | 1012.8 hPa | 0 mm | - | - | - |
| 1788473072 | 36.67° C | 43% | 1013.2 hPa | 0 mm | - | - | - |
| 1788471575 | 37.22° C | 41% | 1013.3 hPa | 0 mm | - | - | - |
| 1788470074 | 36.11° C | 44% | 1013.8 hPa | 0 mm | - | - | - |
| 1788468574 | 36.67° C | 42% | 1013.6 hPa | 0 mm | - | - | - |
| 1788465574 | 35.56° C | 44% | 1014.2 hPa | 0 mm | - | - | - |
| 1788464074 | 36.11° C | 44% | 1014.7 hPa | 0 mm | - | - | - |
| 1788462574 | 36.67° C | 44% | 1014.9 hPa | 0 mm | - | - | - |
| 1788458074 | 34.44° C | 49% | 1016 hPa | 0 mm | - | - | - |
| 1788455074 | 33.33° C | 55% | 1016.9 hPa | 0 mm | - | - | - |
| 1788447574 | 28.33° C | 74% | 1017.5 hPa | 0 mm | - | - | - |
| 1788446074 | 27.78° C | 78% | 1017.5 hPa | 0 mm | - | - | - |
| 1788444574 | 26.67° C | 79% | 1017.9 hPa | 0 mm | - | - | - |
| 1788443074 | 25.56° C | 84% | 1017.9 hPa | 0 mm | - | - | - |
| 1788441574 | 25° C | 86% | 1018 hPa | 0 mm | - | - | - |
| 1788440084 | 23.89° C | 91% | 1018 hPa | 0 mm | - | - | - |
| 1788438574 | 23.33° C | 94% | 1018 hPa | 0 mm | - | - | - |
* Rain latest hour (hover to see other rain measurements)
** Current wind speed in m/s (hover to see current wind gust speed)